EZY8634 EDDH-EGKK
Flight info
| Callsign | EZY8634 |
|---|---|
| Flight time | N/A |
| Altitude | 38000 |
| Route | WSN5G WSN N125 ONTAZ DCT GALSO Q63 ARREK Y4 TEBRA |
| Aircraft | A320/M-SDE3FGHIRWY/LB1 |
Departure
| Time | 2026-04-26 15:41 |
|---|---|
| Airport | Hamburg Helmut Schmidt Airport (EDDH) |
Arrival
| Time | N/A |
|---|---|
| Airport | London Gatwick Airport (EGKK) |
| Time | Latitude | Longitude | Altitude | Speed | Heading |
|---|---|---|---|---|---|
| 2026-04-26 15:19 | 53.62966 | 10.00287 | 51 ft | 0 kts | 121° |
| 2026-04-26 15:32 | 53.62969 | 10.00278 | 49 ft | 4 kts | 121° |
| 2026-04-26 15:32 | 53.62983 | 10.00239 | 51 ft | 4 kts | 121° |
| 2026-04-26 15:33 | 53.62997 | 10.00200 | 48 ft | 4 kts | 121° |
| 2026-04-26 15:33 | 53.63008 | 10.00168 | 47 ft | 4 kts | 123° |
| 2026-04-26 15:33 | 53.63024 | 10.00142 | 46 ft | 4 kts | 186° |
| 2026-04-26 15:33 | 53.63043 | 10.00155 | 51 ft | 1 kts | 212° |
| 2026-04-26 15:37 | 53.63040 | 10.00151 | 45 ft | 3 kts | 212° |
| 2026-04-26 15:37 | 53.63004 | 10.00113 | 48 ft | 9 kts | 213° |
| 2026-04-26 15:37 | 53.62936 | 10.00033 | 50 ft | 14 kts | 226° |
| 2026-04-26 15:38 | 53.62911 | 9.99969 | 50 ft | 3 kts | 243° |
| 2026-04-26 15:38 | 53.62893 | 9.99906 | 50 ft | 9 kts | 245° |
| 2026-04-26 15:38 | 53.62860 | 9.99780 | 48 ft | 12 kts | 261° |
| 2026-04-26 15:38 | 53.62908 | 9.99708 | 50 ft | 6 kts | 333° |
| 2026-04-26 15:39 | 53.62909 | 9.99708 | 49 ft | 0 kts | 333° |
| 2026-04-26 15:40 | 53.62914 | 9.99704 | 49 ft | 6 kts | 333° |
| 2026-04-26 15:40 | 53.63214 | 9.99445 | 50 ft | 97 kts | 333° |
| 2026-04-26 15:40 | 53.64069 | 9.98709 | 66 ft | 172 kts | 330° |
| 2026-04-26 15:41 | 53.65198 | 9.97768 | 786 ft | 191 kts | 332° |
| 2026-04-26 15:41 | 53.66417 | 9.96724 | 1813 ft | 204 kts | 332° |
| 2026-04-26 15:41 | 53.67699 | 9.95621 | 2877 ft | 210 kts | 332° |
| 2026-04-26 15:41 | 53.69020 | 9.94484 | 3809 ft | 215 kts | 332° |
| 2026-04-26 15:42 | 53.70360 | 9.93308 | 4654 ft | 221 kts | 327° |
| 2026-04-26 15:42 | 53.71377 | 9.91435 | 4942 ft | 219 kts | 289° |
| 2026-04-26 15:42 | 53.71434 | 9.88744 | 5013 ft | 248 kts | 256° |
| 2026-04-26 15:42 | 53.70934 | 9.85897 | 5003 ft | 256 kts | 252° |
| 2026-04-26 15:43 | 53.70345 | 9.83043 | 5008 ft | 258 kts | 250° |
| 2026-04-26 15:43 | 53.69737 | 9.80196 | 5009 ft | 258 kts | 250° |
| 2026-04-26 15:43 | 53.68546 | 9.74481 | 5011 ft | 258 kts | 251° |
| 2026-04-26 15:44 | 53.67967 | 9.71613 | 5011 ft | 258 kts | 251° |
| 2026-04-26 15:44 | 53.66819 | 9.65853 | 5447 ft | 268 kts | 252° |
| 2026-04-26 15:44 | 53.66234 | 9.62902 | 6648 ft | 265 kts | 252° |
| 2026-04-26 15:45 | 53.64873 | 9.57033 | 8101 ft | 276 kts | 241° |
| 2026-04-26 15:45 | 53.63766 | 9.54377 | 8257 ft | 277 kts | 236° |
| 2026-04-26 15:46 | 53.61494 | 9.49124 | 8302 ft | 277 kts | 236° |
| 2026-04-26 15:46 | 53.60358 | 9.46497 | 8298 ft | 277 kts | 236° |
| 2026-04-26 15:46 | 53.59226 | 9.43871 | 8300 ft | 277 kts | 237° |
| 2026-04-26 15:46 | 53.58460 | 9.42093 | 8299 ft | 277 kts | 236° |
| 2026-04-26 15:47 | 53.56959 | 9.38616 | 8304 ft | 277 kts | 236° |
| 2026-04-26 15:47 | 53.54689 | 9.33363 | 8304 ft | 277 kts | 236° |
| 2026-04-26 15:47 | 53.53554 | 9.30739 | 8299 ft | 277 kts | 236° |
| 2026-04-26 15:48 | 53.52421 | 9.28113 | 8302 ft | 277 kts | 236° |
| 2026-04-26 15:48 | 53.51289 | 9.25489 | 8304 ft | 278 kts | 237° |
| 2026-04-26 15:48 | 53.50152 | 9.22858 | 8300 ft | 278 kts | 236° |
| 2026-04-26 15:48 | 53.49015 | 9.20235 | 8307 ft | 278 kts | 236° |
| 2026-04-26 15:49 | 53.47879 | 9.17616 | 8306 ft | 278 kts | 236° |
| 2026-04-26 15:49 | 53.46740 | 9.14994 | 8309 ft | 278 kts | 236° |
| 2026-04-26 15:49 | 53.45600 | 9.12370 | 8309 ft | 278 kts | 236° |
| 2026-04-26 15:49 | 53.44459 | 9.09748 | 8365 ft | 281 kts | 236° |
| 2026-04-26 15:50 | 53.43295 | 9.07073 | 9243 ft | 284 kts | 237° |
| 2026-04-26 15:50 | 53.42128 | 9.04394 | 10216 ft | 287 kts | 237° |
| 2026-04-26 15:50 | 53.40919 | 9.01619 | 10731 ft | 306 kts | 237° |
| 2026-04-26 15:50 | 53.39622 | 8.98639 | 11146 ft | 324 kts | 237° |
| 2026-04-26 15:51 | 53.38272 | 8.95554 | 11879 ft | 331 kts | 237° |
| 2026-04-26 15:51 | 53.36903 | 8.92433 | 12709 ft | 334 kts | 237° |
| 2026-04-26 15:51 | 53.35519 | 8.89278 | 13547 ft | 337 kts | 238° |
| 2026-04-26 15:51 | 53.34369 | 8.85862 | 14325 ft | 337 kts | 250° |
| 2026-04-26 15:52 | 53.33545 | 8.82185 | 15061 ft | 339 kts | 253° |
| 2026-04-26 15:52 | 53.32730 | 8.78464 | 15800 ft | 342 kts | 252° |
| 2026-04-26 15:52 | 53.31906 | 8.74727 | 16525 ft | 344 kts | 252° |
| 2026-04-26 15:52 | 53.31354 | 8.72230 | 17006 ft | 346 kts | 252° |
| 2026-04-26 15:53 | 53.30229 | 8.67153 | 17960 ft | 350 kts | 252° |
| 2026-04-26 15:53 | 53.29389 | 8.63365 | 18652 ft | 353 kts | 252° |
| 2026-04-26 15:53 | 53.28526 | 8.59447 | 19270 ft | 356 kts | 252° |
| 2026-04-26 15:53 | 53.27679 | 8.55589 | 19885 ft | 359 kts | 252° |
| 2026-04-26 15:54 | 53.26805 | 8.51604 | 20502 ft | 362 kts | 252° |
| 2026-04-26 15:54 | 53.25953 | 8.47626 | 21104 ft | 365 kts | 254° |
| 2026-04-26 15:54 | 53.25162 | 8.43588 | 21708 ft | 368 kts | 255° |
| 2026-04-26 15:54 | 53.24413 | 8.39546 | 22303 ft | 370 kts | 256° |
| 2026-04-26 15:55 | 53.23664 | 8.35412 | 22902 ft | 374 kts | 256° |
| 2026-04-26 15:55 | 53.22906 | 8.31245 | 23497 ft | 377 kts | 256° |
| 2026-04-26 15:55 | 53.22130 | 8.27048 | 24046 ft | 380 kts | 255° |
| 2026-04-26 15:55 | 53.21328 | 8.22770 | 24541 ft | 383 kts | 255° |
| 2026-04-26 15:56 | 53.20529 | 8.18583 | 25016 ft | 385 kts | 255° |
| 2026-04-26 15:56 | 53.19697 | 8.14263 | 25503 ft | 387 kts | 255° |
| 2026-04-26 15:56 | 53.18873 | 8.09981 | 25972 ft | 389 kts | 255° |
| 2026-04-26 15:56 | 53.18065 | 8.05727 | 26418 ft | 391 kts | 255° |
| 2026-04-26 15:57 | 53.17249 | 8.01394 | 26858 ft | 393 kts | 256° |
| 2026-04-26 15:57 | 53.16435 | 7.97037 | 27304 ft | 395 kts | 256° |
| 2026-04-26 15:57 | 53.15617 | 7.92661 | 27726 ft | 397 kts | 256° |
| 2026-04-26 15:57 | 53.15059 | 7.89690 | 28012 ft | 398 kts | 256° |
| 2026-04-26 15:58 | 53.13953 | 7.83842 | 28560 ft | 401 kts | 255° |
| 2026-04-26 15:58 | 53.13106 | 7.79402 | 28968 ft | 403 kts | 255° |
| 2026-04-26 15:58 | 53.12250 | 7.74944 | 29364 ft | 405 kts | 255° |
| 2026-04-26 15:58 | 53.11388 | 7.70472 | 29746 ft | 407 kts | 255° |
| 2026-04-26 15:59 | 53.10520 | 7.65968 | 30120 ft | 409 kts | 255° |
| 2026-04-26 15:59 | 53.09646 | 7.61444 | 30468 ft | 411 kts | 255° |
| 2026-04-26 15:59 | 53.08769 | 7.56906 | 30771 ft | 413 kts | 255° |
| 2026-04-26 15:59 | 53.07887 | 7.52352 | 31052 ft | 416 kts | 255° |
| 2026-04-26 16:00 | 53.06993 | 7.47751 | 31338 ft | 417 kts | 255° |
| 2026-04-26 16:00 | 53.06098 | 7.43155 | 31608 ft | 419 kts | 255° |
| 2026-04-26 16:00 | 53.05194 | 7.38530 | 31871 ft | 421 kts | 255° |
| 2026-04-26 16:00 | 53.04283 | 7.33889 | 32183 ft | 422 kts | 255° |
| 2026-04-26 16:01 | 53.03370 | 7.29254 | 32567 ft | 421 kts | 255° |
| 2026-04-26 16:01 | 53.02460 | 7.24639 | 32941 ft | 420 kts | 255° |
| 2026-04-26 16:01 | 53.01454 | 7.20079 | 33313 ft | 421 kts | 249° |
| 2026-04-26 16:01 | 53.00180 | 7.15696 | 33681 ft | 422 kts | 248° |
| 2026-04-26 16:02 | 52.98897 | 7.11327 | 34055 ft | 421 kts | 248° |
| 2026-04-26 16:02 | 52.97613 | 7.06968 | 34407 ft | 420 kts | 248° |
| 2026-04-26 16:02 | 52.96330 | 7.02610 | 34711 ft | 420 kts | 248° |
| 2026-04-26 16:02 | 52.95479 | 6.99719 | 34908 ft | 420 kts | 248° |
| 2026-04-26 16:03 | 52.93763 | 6.93898 | 35280 ft | 420 kts | 248° |
| 2026-04-26 16:03 | 52.92477 | 6.89546 | 35551 ft | 420 kts | 248° |
| 2026-04-26 16:03 | 52.91191 | 6.85203 | 35814 ft | 420 kts | 248° |
| 2026-04-26 16:03 | 52.89921 | 6.80925 | 36065 ft | 420 kts | 248° |
| 2026-04-26 16:04 | 52.88608 | 6.76519 | 36327 ft | 420 kts | 248° |
| 2026-04-26 16:04 | 52.87333 | 6.72252 | 36574 ft | 420 kts | 248° |
| 2026-04-26 16:04 | 52.86036 | 6.67916 | 36822 ft | 420 kts | 248° |
| 2026-04-26 16:04 | 52.84741 | 6.63592 | 37060 ft | 420 kts | 248° |
| 2026-04-26 16:05 | 52.83444 | 6.59264 | 37285 ft | 420 kts | 248° |
| 2026-04-26 16:05 | 52.82148 | 6.54942 | 37520 ft | 420 kts | 248° |
| 2026-04-26 16:05 | 52.80851 | 6.50616 | 37734 ft | 420 kts | 248° |
| 2026-04-26 16:05 | 52.79550 | 6.46288 | 37961 ft | 420 kts | 248° |
| 2026-04-26 16:06 | 52.78249 | 6.41973 | 38177 ft | 419 kts | 248° |
| 2026-04-26 16:06 | 52.76943 | 6.37658 | 38306 ft | 419 kts | 248° |
| 2026-04-26 16:06 | 52.75638 | 6.33359 | 38324 ft | 419 kts | 248° |
| 2026-04-26 16:07 | 52.73035 | 6.24783 | 38317 ft | 418 kts | 248° |
| 2026-04-26 16:07 | 52.70424 | 6.16219 | 38320 ft | 418 kts | 248° |
| 2026-04-26 16:08 | 52.67820 | 6.07715 | 38310 ft | 418 kts | 247° |
| 2026-04-26 16:08 | 52.65199 | 5.99177 | 38315 ft | 418 kts | 247° |
| 2026-04-26 16:09 | 52.62567 | 5.90643 | 38315 ft | 418 kts | 247° |
| 2026-04-26 16:09 | 52.59927 | 5.82112 | 38318 ft | 418 kts | 247° |
| 2026-04-26 16:10 | 52.57287 | 5.73600 | 38322 ft | 418 kts | 247° |
| 2026-04-26 16:10 | 52.55086 | 5.66525 | 38324 ft | 418 kts | 247° |
| 2026-04-26 16:11 | 52.52430 | 5.58021 | 38332 ft | 418 kts | 247° |
| 2026-04-26 16:11 | 52.49772 | 5.49529 | 38336 ft | 418 kts | 247° |
| 2026-04-26 16:12 | 52.47102 | 5.41040 | 38339 ft | 418 kts | 246° |
| 2026-04-26 16:12 | 52.43092 | 5.28336 | 38337 ft | 418 kts | 246° |
| 2026-04-26 16:13 | 52.40409 | 5.19886 | 38337 ft | 418 kts | 246° |
| 2026-04-26 16:13 | 52.37727 | 5.11459 | 38335 ft | 417 kts | 246° |
| 2026-04-26 16:14 | 52.35038 | 5.03054 | 38326 ft | 423 kts | 246° |
| 2026-04-26 16:15 | 52.30888 | 4.90102 | 38329 ft | 434 kts | 246° |
| 2026-04-26 16:15 | 52.28062 | 4.81333 | 38328 ft | 438 kts | 245° |
| 2026-04-26 16:16 | 52.23765 | 4.68052 | 38329 ft | 443 kts | 245° |
| 2026-04-26 16:16 | 52.20868 | 4.59151 | 38324 ft | 445 kts | 245° |
| 2026-04-26 16:17 | 52.17956 | 4.50239 | 38321 ft | 446 kts | 245° |
| 2026-04-26 16:17 | 52.15037 | 4.41319 | 38310 ft | 446 kts | 245° |
| 2026-04-26 16:18 | 52.10636 | 4.27938 | 38320 ft | 448 kts | 245° |
| 2026-04-26 16:19 | 52.06224 | 4.14591 | 38341 ft | 446 kts | 245° |
| 2026-04-26 16:20 | 52.01807 | 4.01329 | 38344 ft | 444 kts | 244° |
| 2026-04-26 16:20 | 51.97396 | 3.88143 | 38347 ft | 443 kts | 244° |
| 2026-04-26 16:21 | 51.94455 | 3.79378 | 38353 ft | 442 kts | 244° |
| 2026-04-26 16:21 | 51.91511 | 3.70643 | 38352 ft | 442 kts | 244° |
| 2026-04-26 16:22 | 51.88557 | 3.61907 | 38346 ft | 442 kts | 244° |
| 2026-04-26 16:22 | 51.85602 | 3.53206 | 38349 ft | 441 kts | 244° |
| 2026-04-26 16:23 | 51.82644 | 3.44508 | 38350 ft | 441 kts | 244° |
| 2026-04-26 16:23 | 51.79697 | 3.35900 | 38346 ft | 441 kts | 243° |
| 2026-04-26 16:24 | 51.78215 | 3.31577 | 38124 ft | 437 kts | 244° |
| 2026-04-26 16:24 | 51.76740 | 3.27270 | 37195 ft | 438 kts | 244° |
| 2026-04-26 16:24 | 51.75271 | 3.22990 | 36481 ft | 434 kts | 244° |
| 2026-04-26 16:24 | 51.73931 | 3.18652 | 35742 ft | 429 kts | 251° |
| 2026-04-26 16:25 | 51.73070 | 3.14111 | 35263 ft | 419 kts | 260° |
| 2026-04-26 16:25 | 51.72621 | 3.09499 | 34718 ft | 413 kts | 264° |
| 2026-04-26 16:25 | 51.72232 | 3.04928 | 34166 ft | 409 kts | 264° |
| 2026-04-26 16:25 | 51.71840 | 3.00413 | 33615 ft | 404 kts | 264° |
| 2026-04-26 16:26 | 51.71447 | 2.95957 | 33105 ft | 398 kts | 263° |
| 2026-04-26 16:26 | 51.71059 | 2.91550 | 32589 ft | 394 kts | 263° |
| 2026-04-26 16:26 | 51.70676 | 2.87197 | 32086 ft | 390 kts | 263° |
| 2026-04-26 16:26 | 51.70295 | 2.82894 | 31594 ft | 386 kts | 263° |
| 2026-04-26 16:27 | 51.69919 | 2.78634 | 31108 ft | 382 kts | 263° |
| 2026-04-26 16:27 | 51.69544 | 2.74414 | 30641 ft | 379 kts | 263° |
| 2026-04-26 16:27 | 51.69173 | 2.70228 | 30136 ft | 376 kts | 263° |
| 2026-04-26 16:27 | 51.68803 | 2.66077 | 29663 ft | 371 kts | 263° |
| 2026-04-26 16:28 | 51.68437 | 2.61986 | 29211 ft | 367 kts | 263° |
| 2026-04-26 16:28 | 51.68072 | 2.57945 | 28781 ft | 362 kts | 263° |
| 2026-04-26 16:28 | 51.67710 | 2.53945 | 28350 ft | 358 kts | 263° |
| 2026-04-26 16:28 | 51.67354 | 2.49988 | 27932 ft | 355 kts | 263° |
| 2026-04-26 16:29 | 51.67001 | 2.46080 | 27518 ft | 351 kts | 262° |
| 2026-04-26 16:29 | 51.66648 | 2.42210 | 27113 ft | 347 kts | 262° |
| 2026-04-26 16:29 | 51.66298 | 2.38382 | 26699 ft | 344 kts | 262° |
| 2026-04-26 16:29 | 51.65949 | 2.34595 | 26294 ft | 340 kts | 262° |
| 2026-04-26 16:30 | 51.65602 | 2.30843 | 25874 ft | 337 kts | 262° |
| 2026-04-26 16:30 | 51.65264 | 2.27171 | 25472 ft | 335 kts | 262° |
| 2026-04-26 16:30 | 51.64925 | 2.23477 | 25057 ft | 333 kts | 262° |
| 2026-04-26 16:30 | 51.64584 | 2.19800 | 24611 ft | 331 kts | 262° |
| 2026-04-26 16:31 | 51.64240 | 2.16145 | 24189 ft | 330 kts | 262° |
| 2026-04-26 16:31 | 51.63895 | 2.12500 | 23732 ft | 329 kts | 262° |
| 2026-04-26 16:31 | 51.63553 | 2.08871 | 23266 ft | 327 kts | 262° |
| 2026-04-26 16:31 | 51.63216 | 2.05265 | 22840 ft | 324 kts | 262° |
| 2026-04-26 16:32 | 51.62883 | 2.01683 | 22414 ft | 322 kts | 262° |
| 2026-04-26 16:32 | 51.62665 | 1.99329 | 22136 ft | 321 kts | 262° |
| 2026-04-26 16:32 | 51.62224 | 1.94588 | 21579 ft | 319 kts | 262° |
| 2026-04-26 16:32 | 51.61896 | 1.91075 | 21169 ft | 317 kts | 262° |
| 2026-04-26 16:33 | 51.61559 | 1.87572 | 20772 ft | 316 kts | 259° |
| 2026-04-26 16:33 | 51.60904 | 1.84208 | 20348 ft | 316 kts | 246° |
| 2026-04-26 16:33 | 51.59810 | 1.81146 | 19947 ft | 316 kts | 235° |
| 2026-04-26 16:33 | 51.58391 | 1.78448 | 19550 ft | 316 kts | 230° |
| 2026-04-26 16:34 | 51.56951 | 1.75840 | 19167 ft | 316 kts | 230° |
| 2026-04-26 16:34 | 51.55499 | 1.73199 | 18780 ft | 315 kts | 230° |
| 2026-04-26 16:34 | 51.54050 | 1.70559 | 18366 ft | 315 kts | 230° |
| 2026-04-26 16:34 | 51.52602 | 1.67927 | 17969 ft | 313 kts | 230° |
| 2026-04-26 16:35 | 51.51165 | 1.65317 | 17590 ft | 311 kts | 230° |
| 2026-04-26 16:35 | 51.49752 | 1.62706 | 17216 ft | 309 kts | 234° |
| 2026-04-26 16:35 | 51.48622 | 1.59805 | 16850 ft | 305 kts | 246° |
| 2026-04-26 16:35 | 51.47850 | 1.56652 | 16483 ft | 303 kts | 251° |
| 2026-04-26 16:36 | 51.47133 | 1.53484 | 16117 ft | 302 kts | 251° |
| 2026-04-26 16:36 | 51.46411 | 1.50327 | 15762 ft | 301 kts | 251° |
| 2026-04-26 16:36 | 51.45685 | 1.47179 | 15406 ft | 300 kts | 251° |
| 2026-04-26 16:36 | 51.44960 | 1.44041 | 15043 ft | 300 kts | 251° |
| 2026-04-26 16:37 | 51.44230 | 1.40914 | 14691 ft | 300 kts | 248° |
| 2026-04-26 16:37 | 51.43210 | 1.38003 | 14337 ft | 301 kts | 234° |
| 2026-04-26 16:37 | 51.41773 | 1.35537 | 14108 ft | 307 kts | 221° |
| 2026-04-26 16:37 | 51.40054 | 1.33462 | 13899 ft | 310 kts | 218° |
| 2026-04-26 16:38 | 51.38320 | 1.31417 | 13686 ft | 310 kts | 218° |
| 2026-04-26 16:38 | 51.36587 | 1.29366 | 13484 ft | 309 kts | 218° |
| 2026-04-26 16:38 | 51.34862 | 1.27327 | 13277 ft | 308 kts | 218° |
| 2026-04-26 16:38 | 51.33140 | 1.25290 | 13077 ft | 307 kts | 218° |
| 2026-04-26 16:39 | 51.31425 | 1.23258 | 12867 ft | 306 kts | 218° |
| 2026-04-26 16:39 | 51.29712 | 1.21236 | 12661 ft | 306 kts | 218° |
| 2026-04-26 16:39 | 51.28004 | 1.19223 | 12458 ft | 305 kts | 218° |
| 2026-04-26 16:39 | 51.26299 | 1.17219 | 12256 ft | 304 kts | 218° |
| 2026-04-26 16:40 | 51.24597 | 1.15216 | 12055 ft | 303 kts | 218° |
| 2026-04-26 16:40 | 51.22905 | 1.13220 | 11850 ft | 302 kts | 218° |
| 2026-04-26 16:40 | 51.21213 | 1.11229 | 11650 ft | 301 kts | 218° |
| 2026-04-26 16:40 | 51.19526 | 1.09252 | 11450 ft | 301 kts | 218° |
| 2026-04-26 16:41 | 51.17841 | 1.07280 | 11254 ft | 300 kts | 218° |
| 2026-04-26 16:41 | 51.16160 | 1.05316 | 11052 ft | 299 kts | 218° |
| 2026-04-26 16:41 | 51.14508 | 1.03390 | 10852 ft | 298 kts | 218° |
| 2026-04-26 16:41 | 51.12835 | 1.01442 | 10660 ft | 298 kts | 218° |
| 2026-04-26 16:42 | 51.11174 | 0.99492 | 10450 ft | 296 kts | 220° |
| 2026-04-26 16:42 | 51.09833 | 0.97070 | 10223 ft | 289 kts | 242° |
| 2026-04-26 16:42 | 51.09172 | 0.94113 | 10098 ft | 283 kts | 262° |
| 2026-04-26 16:42 | 51.08901 | 0.91013 | 9967 ft | 283 kts | 263° |
| 2026-04-26 16:43 | 51.08631 | 0.87904 | 9834 ft | 283 kts | 263° |
| 2026-04-26 16:43 | 51.08361 | 0.84807 | 9698 ft | 283 kts | 263° |
| 2026-04-26 16:43 | 51.08089 | 0.81707 | 9569 ft | 282 kts | 263° |
| 2026-04-26 16:43 | 51.07817 | 0.78625 | 9434 ft | 282 kts | 263° |
| 2026-04-26 16:44 | 51.07544 | 0.75542 | 9307 ft | 281 kts | 263° |
| 2026-04-26 16:44 | 51.07273 | 0.72464 | 9175 ft | 281 kts | 263° |
| 2026-04-26 16:44 | 51.07002 | 0.69388 | 9044 ft | 281 kts | 263° |
| 2026-04-26 16:44 | 51.06729 | 0.66311 | 8866 ft | 281 kts | 263° |
| 2026-04-26 16:45 | 51.06455 | 0.63232 | 8733 ft | 280 kts | 263° |
| 2026-04-26 16:45 | 51.06180 | 0.60163 | 8601 ft | 280 kts | 263° |
| 2026-04-26 16:45 | 51.05906 | 0.57101 | 8473 ft | 280 kts | 263° |
| 2026-04-26 16:45 | 51.05633 | 0.54086 | 8344 ft | 280 kts | 263° |
| 2026-04-26 16:46 | 51.05356 | 0.51023 | 8217 ft | 279 kts | 263° |
| 2026-04-26 16:46 | 51.05079 | 0.47971 | 8089 ft | 279 kts | 263° |
| 2026-04-26 16:46 | 51.04801 | 0.44917 | 7963 ft | 279 kts | 263° |
| 2026-04-26 16:46 | 51.04523 | 0.41872 | 7842 ft | 279 kts | 263° |
| 2026-04-26 16:47 | 51.04372 | 0.40227 | 7777 ft | 278 kts | 263° |
| 2026-04-26 16:47 | 51.04100 | 0.37242 | 7651 ft | 278 kts | 263° |
| 2026-04-26 16:47 | 51.03819 | 0.34200 | 7489 ft | 277 kts | 263° |
| 2026-04-26 16:47 | 51.03540 | 0.31195 | 7121 ft | 274 kts | 263° |
| 2026-04-26 16:48 | 51.03259 | 0.28168 | 6534 ft | 281 kts | 263° |
| 2026-04-26 16:48 | 51.02974 | 0.25118 | 6152 ft | 278 kts | 263° |
| 2026-04-26 16:48 | 51.02688 | 0.22068 | 5762 ft | 276 kts | 263° |
| 2026-04-26 16:48 | 51.02412 | 0.19119 | 5284 ft | 272 kts | 263° |
| 2026-04-26 16:49 | 51.02137 | 0.16168 | 4715 ft | 268 kts | 263° |
| 2026-04-26 16:49 | 51.01868 | 0.13288 | 4279 ft | 259 kts | 263° |
| 2026-04-26 16:49 | 51.01608 | 0.10504 | 3904 ft | 250 kts | 263° |
| 2026-04-26 16:49 | 51.01460 | 0.07725 | 3853 ft | 260 kts | 274° |
| 2026-04-26 16:50 | 51.01635 | 0.04842 | 3792 ft | 263 kts | 277° |
| 2026-04-26 16:50 | 51.01827 | 0.01940 | 3725 ft | 264 kts | 277° |
| 2026-04-26 16:50 | 51.02012 | -0.00970 | 3666 ft | 264 kts | 277° |
| 2026-04-26 16:50 | 51.02193 | -0.03876 | 3617 ft | 264 kts | 277° |
| 2026-04-26 16:51 | 51.02372 | -0.06776 | 3554 ft | 264 kts | 277° |
| 2026-04-26 16:51 | 51.02550 | -0.09675 | 3488 ft | 263 kts | 276° |
| 2026-04-26 16:51 | 51.02727 | -0.12570 | 3433 ft | 263 kts | 276° |
| 2026-04-26 16:51 | 51.02903 | -0.15460 | 3370 ft | 263 kts | 276° |
| 2026-04-26 16:52 | 51.03079 | -0.18352 | 3308 ft | 263 kts | 276° |
| 2026-04-26 16:52 | 51.03136 | -0.19287 | 3289 ft | 262 kts | 276° |
| 2026-04-26 16:52 | 51.03428 | -0.24112 | 3183 ft | 262 kts | 276° |
| 2026-04-26 16:52 | 51.03599 | -0.26991 | 3056 ft | 261 kts | 276° |
| 2026-04-26 16:53 | 51.03768 | -0.29853 | 3007 ft | 261 kts | 276° |
| 2026-04-26 16:53 | 51.03936 | -0.32688 | 3009 ft | 261 kts | 276° |
| 2026-04-26 16:53 | 51.04109 | -0.35597 | 3014 ft | 261 kts | 276° |
| 2026-04-26 16:53 | 51.04264 | -0.38437 | 3012 ft | 261 kts | 275° |
| 2026-04-26 16:54 | 51.04405 | -0.41314 | 3010 ft | 261 kts | 275° |
| 2026-04-26 16:54 | 51.04539 | -0.44194 | 3013 ft | 259 kts | 275° |
| 2026-04-26 16:54 | 51.04665 | -0.46943 | 3010 ft | 240 kts | 275° |
| 2026-04-26 16:54 | 51.04782 | -0.49505 | 3010 ft | 224 kts | 275° |
| 2026-04-26 16:55 | 51.04914 | -0.51907 | 3007 ft | 214 kts | 281° |
| 2026-04-26 16:55 | 51.05600 | -0.53908 | 3012 ft | 209 kts | 323° |
| 2026-04-26 16:55 | 51.06889 | -0.54775 | 3038 ft | 196 kts | 353° |
| 2026-04-26 16:55 | 51.08195 | -0.54658 | 3023 ft | 182 kts | 16° |
| 2026-04-26 16:56 | 51.09971 | -0.52497 | 3001 ft | 151 kts | 59° |
| 2026-04-26 16:56 | 51.10352 | -0.50966 | 3010 ft | 147 kts | 77° |
| 2026-04-26 16:56 | 51.10574 | -0.49383 | 3013 ft | 146 kts | 76° |
| 2026-04-26 16:57 | 51.10796 | -0.47809 | 3013 ft | 146 kts | 76° |
| 2026-04-26 16:57 | 51.11018 | -0.46237 | 3015 ft | 145 kts | 76° |
| 2026-04-26 16:57 | 51.11460 | -0.43093 | 2998 ft | 146 kts | 76° |
| 2026-04-26 16:58 | 51.11607 | -0.42049 | 2925 ft | 146 kts | 76° |
| 2026-04-26 16:58 | 51.11753 | -0.41006 | 2822 ft | 146 kts | 77° |
| 2026-04-26 16:58 | 51.12268 | -0.37335 | 2409 ft | 145 kts | 77° |
| 2026-04-26 16:59 | 51.12486 | -0.35774 | 2211 ft | 145 kts | 77° |
| 2026-04-26 16:59 | 51.12923 | -0.32650 | 1823 ft | 144 kts | 78° |
| 2026-04-26 17:00 | 51.13358 | -0.29528 | 1435 ft | 144 kts | 78° |
| 2026-04-26 17:00 | 51.13786 | -0.26452 | 1011 ft | 142 kts | 78° |
| 2026-04-26 17:00 | 51.13995 | -0.24941 | 803 ft | 138 kts | 78° |